Time;durP1;ratioP1;P1;durP2;ratioP2;P2;SDS_P1;SDS_P2;PMS_P1;PMS_P2;Temp;Humidity;BMP_temperature;BMP_pressure;BME280_temperature;BME280_humidity;BME280_pressure;Samples;Min_cycle;Max_cycle;Signal;HPM_P1;HPM_P2
2020/12/22 00:00:08;;;;;;;0.70;0.50;;;10.40;92.30;;;;;;5053648;28;20032;-86
2020/12/22 00:02:44;;;;;;;2.60;0.40;;;10.50;92.20;;;;;;5054167;28;20040;-86
2020/12/22 00:05:10;;;;;;;0.70;0.40;;;10.50;92.20;;;;;;5053656;28;20029;-85
2020/12/22 00:07:37;;;;;;;1.25;0.50;;;10.50;92.20;;;;;;5053793;28;20040;-86
2020/12/22 00:10:05;;;;;;;0.73;0.47;;;10.50;92.20;;;;;;5052438;28;20025;-85
2020/12/22 00:12:31;;;;;;;0.77;0.50;;;10.50;92.20;;;;;;5053950;28;20111;-85
2020/12/22 00:14:57;;;;;;;0.57;0.40;;;10.60;92.10;;;;;;5052717;28;20028;-85
2020/12/22 00:17:23;;;;;;;1.02;0.60;;;10.60;92.10;;;;;;5051420;28;20525;-85
2020/12/22 00:19:49;;;;;;;0.60;0.40;;;10.60;92.00;;;;;;5032888;28;20060;-85
2020/12/22 00:22:14;;;;;;;0.82;0.35;;;10.60;92.00;;;;;;5048770;28;20389;-85
2020/12/22 00:24:40;;;;;;;1.45;0.20;;;10.60;91.90;;;;;;5053581;28;20466;-85
2020/12/22 00:27:05;;;;;;;1.77;0.40;;;10.60;91.90;;;;;;5052579;28;20021;-85
2020/12/22 00:29:31;;;;;;;0.70;0.40;;;10.70;91.90;;;;;;5053451;28;20045;-84
2020/12/22 00:32:00;;;;;;;0.70;0.40;;;10.70;91.80;;;;;;5050996;28;20020;-85
2020/12/22 00:34:28;;;;;;;0.80;0.38;;;10.70;91.60;;;;;;5037944;28;20112;-84
2020/12/22 00:36:53;;;;;;;1.13;0.50;;;10.80;91.50;;;;;;5036732;28;20025;-84
2020/12/22 00:39:19;;;;;;;1.08;0.40;;;10.80;91.40;;;;;;5036039;28;20202;-84
2020/12/22 00:41:45;;;;;;;0.80;0.40;;;10.90;91.30;;;;;;5037580;28;20040;-84
2020/12/22 00:44:10;;;;;;;0.60;0.30;;;10.90;91.20;;;;;;5039040;28;20024;-85
2020/12/22 00:46:36;;;;;;;0.20;0.20;;;10.90;91.10;;;;;;5038846;28;20025;-84
2020/12/22 00:49:02;;;;;;;0.73;0.35;;;10.90;90.90;;;;;;5053687;28;20500;-84
2020/12/22 00:51:28;;;;;;;0.30;0.20;;;11.00;90.80;;;;;;5021650;28;20476;-84
2020/12/22 00:53:53;;;;;;;0.73;0.30;;;11.00;90.70;;;;;;5029056;28;20029;-84
2020/12/22 00:56:19;;;;;;;0.90;0.40;;;11.10;90.60;;;;;;5035195;28;20331;-84
2020/12/22 00:58:44;;;;;;;0.52;0.20;;;11.10;90.60;;;;;;5025669;28;20038;-84
2020/12/22 01:01:10;;;;;;;1.83;0.38;;;11.10;90.50;;;;;;5036150;28;20036;-84
2020/12/22 01:03:36;;;;;;;0.43;0.30;;;11.20;90.40;;;;;;5026996;28;20022;-84
2020/12/22 01:06:01;;;;;;;0.20;0.20;;;11.20;90.40;;;;;;5026621;28;20025;-84
2020/12/22 01:08:27;;;;;;;0.60;0.25;;;11.20;90.30;;;;;;5027260;28;20033;-83
2020/12/22 01:10:54;;;;;;;0.57;0.20;;;11.20;90.20;;;;;;5024193;28;20352;-84
2020/12/22 01:13:20;;;;;;;0.55;0.20;;;11.20;90.00;;;;;;5036096;28;20022;-84
2020/12/22 01:15:45;;;;;;;0.57;0.20;;;11.30;90.00;;;;;;5036500;28;20032;-84
2020/12/22 01:18:11;;;;;;;0.32;0.20;;;11.30;89.80;;;;;;5029478;28;20033;-85
2020/12/22 01:20:37;;;;;;;0.47;0.17;;;11.30;89.70;;;;;;5018645;28;20485;-84
2020/12/22 01:23:02;;;;;;;0.22;0.20;;;11.40;89.70;;;;;;5033765;28;20072;-84
2020/12/22 01:25:28;;;;;;;0.25;0.20;;;11.40;89.60;;;;;;5030504;28;20029;-85
2020/12/22 01:27:53;;;;;;;0.30;0.20;;;11.40;89.40;;;;;;5035900;28;20041;-85
2020/12/22 01:30:19;;;;;;;0.22;0.20;;;11.50;89.00;;;;;;5035562;28;20459;-86
2020/12/22 01:32:46;;;;;;;0.20;0.20;;;11.60;89.00;;;;;;5035837;28;20109;-85
2020/12/22 01:35:12;;;;;;;0.13;0.10;;;11.60;89.00;;;;;;5036044;28;20022;-85
2020/12/22 01:37:38;;;;;;;1.75;0.20;;;11.60;89.00;;;;;;5035364;28;20426;-85
2020/12/22 01:40:03;;;;;;;1.02;0.10;;;11.70;89.40;;;;;;5034902;28;20041;-85
2020/12/22 01:42:29;;;;;;;0.30;0.17;;;11.70;89.80;;;;;;5035437;28;20091;-85
2020/12/22 01:44:55;;;;;;;0.10;0.10;;;11.70;90.00;;;;;;5035030;28;20040;-85
2020/12/22 01:47:22;;;;;;;0.20;0.10;;;11.70;90.00;;;;;;5034866;28;20029;-85
2020/12/22 01:49:48;;;;;;;0.10;0.10;;;11.70;90.00;;;;;;5035073;28;20521;-85
2020/12/22 01:52:13;;;;;;;0.22;0.10;;;11.70;90.10;;;;;;5033451;28;20030;-85
2020/12/22 01:54:39;;;;;;;0.80;0.20;;;11.70;90.30;;;;;;5034274;28;20026;-85
2020/12/22 01:57:11;;;;;;;0.32;0.10;;;11.60;90.40;;;;;;5033196;28;20548;-84
2020/12/22 01:59:38;;;;;;;0.30;0.10;;;11.70;90.60;;;;;;5033973;28;20033;-85
2020/12/22 02:02:04;;;;;;;0.30;0.10;;;11.70;90.70;;;;;;5034721;28;20032;-85
2020/12/22 02:04:30;;;;;;;0.10;0.10;;;11.70;90.80;;;;;;5033888;28;20108;-85
2020/12/22 02:06:57;;;;;;;0.20;0.20;;;11.60;90.80;;;;;;5034607;28;20470;-85
2020/12/22 02:09:22;;;;;;;0.20;0.10;;;11.70;90.80;;;;;;5033537;28;20129;-85
2020/12/22 02:11:48;;;;;;;0.57;0.10;;;11.70;90.70;;;;;;5033884;28;20057;-85
2020/12/22 02:14:13;;;;;;;0.10;0.10;;;11.60;90.70;;;;;;5033423;28;20548;-85
2020/12/22 02:16:39;;;;;;;0.45;0.20;;;11.60;90.70;;;;;;5034054;28;20025;-85
2020/12/22 02:19:05;;;;;;;0.10;0.10;;;11.60;90.80;;;;;;5033102;28;20503;-85
2020/12/22 02:21:31;;;;;;;0.22;0.15;;;11.70;90.80;;;;;;5033988;28;20029;-84
2020/12/22 02:23:56;;;;;;;0.30;0.10;;;11.60;90.90;;;;;;5034714;28;20096;-85
2020/12/22 02:26:23;;;;;;;0.15;0.10;;;11.70;90.90;;;;;;5034298;28;20037;-84
2020/12/22 02:28:50;;;;;;;0.10;0.10;;;11.70;91.00;;;;;;5033862;28;20037;-84
2020/12/22 02:31:16;;;;;;;0.20;0.10;;;11.70;91.00;;;;;;5033102;28;20025;-84
2020/12/22 02:33:42;;;;;;;0.38;0.13;;;11.70;91.00;;;;;;5034411;28;20489;-84
2020/12/22 02:36:10;;;;;;;0.40;0.10;;;11.70;91.10;;;;;;5033186;28;20029;-85
2020/12/22 02:38:36;;;;;;;0.57;0.10;;;11.70;91.20;;;;;;5033410;28;20034;-85
2020/12/22 02:41:01;;;;;;;0.20;0.17;;;11.70;91.30;;;;;;5034290;28;20048;-84
2020/12/22 02:43:27;;;;;;;0.20;0.10;;;11.70;91.40;;;;;;5033887;28;20032;-84
2020/12/22 02:45:53;;;;;;;0.10;0.00;;;11.70;91.40;;;;;;5033433;28;20033;-84
2020/12/22 02:48:19;;;;;;;1.98;0.10;;;11.70;91.50;;;;;;5032926;28;20168;-85
2020/12/22 02:50:44;;;;;;;0.15;0.10;;;11.60;91.60;;;;;;5012578;28;606376;-84
2020/12/22 02:53:10;;;;;;;0.85;0.65;;;11.70;91.70;;;;;;5033153;28;20040;-85
2020/12/22 02:55:36;;;;;;;0.20;0.13;;;11.70;91.80;;;;;;5033461;28;20028;-85
2020/12/22 02:58:01;;;;;;;0.57;0.15;;;11.60;91.90;;;;;;5033919;28;20042;-85
2020/12/22 03:00:27;;;;;;;0.17;0.10;;;11.70;91.90;;;;;;5033805;28;20042;-85
2020/12/22 03:02:53;;;;;;;0.20;0.00;;;11.60;91.90;;;;;;5033883;28;20022;-84
2020/12/22 03:05:19;;;;;;;1.23;0.10;;;11.60;91.90;;;;;;5033423;28;20114;-85
2020/12/22 03:07:45;;;;;;;0.40;0.30;;;11.70;91.90;;;;;;5034739;28;20025;-85
2020/12/22 03:10:13;;;;;;;0.28;0.10;;;11.70;91.90;;;;;;5033577;28;20036;-85
2020/12/22 03:12:39;;;;;;;0.28;0.10;;;11.70;92.00;;;;;;5033664;28;20478;-84
2020/12/22 03:15:07;;;;;;;1.55;0.20;;;11.70;92.00;;;;;;5033704;28;20029;-85
2020/12/22 03:17:34;;;;;;;0.20;0.00;;;11.70;92.00;;;;;;5034542;28;20022;-84
2020/12/22 03:20:00;;;;;;;0.52;0.20;;;11.70;91.90;;;;;;5034896;28;20120;-84
2020/12/22 03:22:26;;;;;;;0.13;0.10;;;11.70;91.80;;;;;;5033330;28;20064;-85
2020/12/22 03:24:51;;;;;;;0.28;0.10;;;11.70;91.70;;;;;;5033500;28;20022;-85
2020/12/22 03:27:17;;;;;;;0.10;0.10;;;11.70;91.60;;;;;;5032916;28;20386;-85
2020/12/22 03:29:42;;;;;;;1.17;0.10;;;11.80;91.60;;;;;;5033426;28;20372;-85
2020/12/22 03:32:09;;;;;;;0.10;0.10;;;11.80;91.60;;;;;;5033276;28;20022;-83
2020/12/22 03:34:35;;;;;;;0.30;0.20;;;11.80;91.50;;;;;;5033432;28;20098;-84
2020/12/22 03:37:01;;;;;;;0.65;0.10;;;11.90;91.50;;;;;;5034369;28;20542;-84
2020/12/22 03:39:27;;;;;;;0.63;0.10;;;11.90;91.30;;;;;;5033962;28;20029;-85
2020/12/22 03:41:52;;;;;;;0.52;0.10;;;11.90;91.20;;;;;;5034413;28;20021;-84
2020/12/22 03:44:18;;;;;;;0.20;0.10;;;11.90;91.10;;;;;;5033006;28;20033;-84
2020/12/22 03:46:48;;;;;;;0.10;0.10;;;12.00;91.00;;;;;;5034282;28;20030;-85
2020/12/22 03:49:18;;;;;;;0.20;0.10;;;12.00;91.00;;;;;;5035260;28;20025;-84
2020/12/22 03:51:45;;;;;;;0.00;0.00;;;12.00;90.90;;;;;;5074217;28;20024;-85
2020/12/22 03:54:11;;;;;;;0.90;0.10;;;12.00;90.80;;;;;;5055895;28;20490;-85
2020/12/22 03:56:40;;;;;;;0.20;0.10;;;12.10;90.80;;;;;;5056189;28;20021;-84
2020/12/22 03:59:06;;;;;;;0.25;0.10;;;12.10;90.70;;;;;;5056403;28;20055;-84
2020/12/22 04:01:31;;;;;;;0.20;0.10;;;12.10;90.70;;;;;;5055563;28;20046;-84
2020/12/22 04:03:57;;;;;;;0.95;0.10;;;12.10;90.80;;;;;;5056430;28;20060;-84
2020/12/22 04:06:23;;;;;;;0.00;0.00;;;12.10;90.80;;;;;;5055975;28;20052;-84
2020/12/22 04:08:52;;;;;;;0.20;0.10;;;12.10;90.90;;;;;;5055782;28;20460;-84
2020/12/22 04:11:18;;;;;;;0.08;0.00;;;12.20;90.90;;;;;;5055611;28;20480;-84
2020/12/22 04:13:44;;;;;;;0.10;0.10;;;12.10;90.90;;;;;;5056025;28;20115;-84
2020/12/22 04:16:09;;;;;;;0.57;0.00;;;12.10;90.90;;;;;;5056141;28;20120;-84
2020/12/22 04:18:35;;;;;;;0.10;0.03;;;12.10;90.90;;;;;;5073349;28;20039;-84
2020/12/22 04:21:01;;;;;;;1.35;0.10;;;12.10;91.00;;;;;;5056121;28;20052;-84
2020/12/22 04:23:27;;;;;;;0.10;0.10;;;12.20;91.10;;;;;;5055666;28;20505;-84
2020/12/22 04:25:53;;;;;;;1.25;0.20;;;12.20;91.10;;;;;;5073703;28;20052;-84
2020/12/22 04:28:19;;;;;;;0.13;0.00;;;12.10;91.20;;;;;;5073331;28;20040;-84
2020/12/22 04:30:45;;;;;;;0.32;0.03;;;12.10;91.20;;;;;;5073752;28;20028;-84
2020/12/22 04:33:13;;;;;;;0.10;0.00;;;12.10;91.30;;;;;;5055881;28;20036;-84
2020/12/22 04:35:40;;;;;;;0.38;0.10;;;12.10;91.30;;;;;;5055914;28;20524;-85
2020/12/22 04:38:06;;;;;;;0.20;0.10;;;12.10;91.20;;;;;;5056029;28;20042;-84
2020/12/22 04:40:33;;;;;;;0.20;0.00;;;12.10;91.30;;;;;;5055383;28;20020;-85
2020/12/22 04:43:00;;;;;;;0.20;0.00;;;12.10;91.40;;;;;;5073565;28;20024;-85
2020/12/22 04:45:29;;;;;;;0.00;0.00;;;12.10;91.60;;;;;;5055695;28;20119;-84
2020/12/22 04:47:56;;;;;;;0.20;0.00;;;12.10;91.70;;;;;;5056030;28;20035;-85
2020/12/22 04:50:22;;;;;;;1.50;0.10;;;12.10;91.80;;;;;;5054953;28;20056;-84
2020/12/22 04:52:51;;;;;;;0.00;0.00;;;12.10;91.80;;;;;;5055848;28;20032;-85
2020/12/22 04:55:18;;;;;;;0.32;0.00;;;12.10;91.90;;;;;;5055312;28;20111;-84
2020/12/22 04:57:51;;;;;;;0.00;0.00;;;12.10;92.00;;;;;;5073396;28;20024;-85
2020/12/22 05:00:18;;;;;;;0.63;0.10;;;12.10;92.20;;;;;;5055167;28;20025;-85
2020/12/22 05:02:45;;;;;;;0.00;0.00;;;12.10;92.30;;;;;;5055799;28;20028;-85
2020/12/22 05:05:11;;;;;;;1.10;0.08;;;12.10;92.30;;;;;;5056032;28;20381;-85
2020/12/22 05:07:39;;;;;;;0.00;0.00;;;12.10;92.40;;;;;;5055069;28;20028;-85
2020/12/22 05:10:12;;;;;;;0.13;0.10;;;12.10;92.50;;;;;;5055633;28;20460;-84
2020/12/22 05:12:41;;;;;;;0.00;0.00;;;12.00;92.60;;;;;;5055352;28;20480;-85
2020/12/22 05:15:09;;;;;;;0.15;0.03;;;12.00;92.60;;;;;;5073359;28;20020;-84
2020/12/22 05:17:43;;;;;;;0.30;0.10;;;12.10;92.50;;;;;;5072730;28;20090;-84
2020/12/22 05:20:18;;;;;;;0.22;0.00;;;12.00;92.60;;;;;;5057481;28;20124;-84
2020/12/22 05:22:47;;;;;;;0.20;0.10;;;12.10;92.50;;;;;;5059158;28;20024;-84
2020/12/22 05:25:16;;;;;;;0.00;0.00;;;12.00;92.40;;;;;;5059177;28;20029;-84
2020/12/22 05:27:44;;;;;;;2.53;0.03;;;12.00;92.50;;;;;;5058988;28;20078;-84
2020/12/22 05:30:10;;;;;;;1.00;0.05;;;12.00;92.40;;;;;;5059140;28;20477;-84
2020/12/22 05:32:35;;;;;;;0.20;0.00;;;12.10;92.40;;;;;;5058617;28;20420;-84
2020/12/22 05:35:01;;;;;;;0.30;0.00;;;12.10;92.70;;;;;;5058911;28;20115;-84
2020/12/22 05:37:28;;;;;;;0.30;0.03;;;12.10;92.40;;;;;;5058435;28;20116;-85
2020/12/22 05:39:55;;;;;;;0.60;0.00;;;12.10;92.30;;;;;;5076021;28;20036;-85
2020/12/22 05:42:20;;;;;;;0.05;0.00;;;12.20;92.30;;;;;;5058443;28;20029;-85
2020/12/22 05:44:51;;;;;;;0.52;0.13;;;12.10;92.20;;;;;;5058808;28;20052;-85
2020/12/22 05:47:20;;;;;;;0.10;0.08;;;12.20;92.20;;;;;;5057720;28;20028;-84
2020/12/22 05:49:56;;;;;;;0.10;0.00;;;12.20;92.20;;;;;;5058713;28;20048;-84
2020/12/22 05:52:24;;;;;;;0.85;0.10;;;12.20;92.10;;;;;;5058307;28;20031;-84
2020/12/22 05:54:51;;;;;;;0.90;0.00;;;12.20;92.00;;;;;;5058732;28;20385;-84
2020/12/22 05:57:42;;;;;;;0.75;0.10;;;12.30;92.00;;;;;;5058583;28;20028;-84
2020/12/22 06:00:15;;;;;;;1.77;0.80;;;12.30;92.00;;;;;;5054343;28;20052;-84
2020/12/22 06:02:41;;;;;;;0.00;0.00;;;12.30;91.70;;;;;;5058003;28;20025;-84
2020/12/22 06:05:08;;;;;;;0.17;0.03;;;12.30;91.60;;;;;;5058258;28;20020;-85
2020/12/22 06:07:33;;;;;;;0.43;0.00;;;12.30;91.80;;;;;;5057676;28;20025;-84
2020/12/22 06:09:59;;;;;;;0.00;0.00;;;12.40;91.30;;;;;;5058261;28;20032;-83
2020/12/22 06:12:25;;;;;;;1.30;0.00;;;12.40;91.10;;;;;;5057933;28;20029;-84
2020/12/22 06:14:53;;;;;;;0.10;0.03;;;12.40;90.80;;;;;;5058458;28;20086;-84
2020/12/22 06:17:20;;;;;;;0.10;0.10;;;12.50;90.40;;;;;;5057697;28;20078;-84
2020/12/22 06:19:46;;;;;;;0.20;0.05;;;12.60;90.00;;;;;;5075793;28;20515;-84
2020/12/22 06:22:14;;;;;;;0.30;0.10;;;12.70;89.60;;;;;;5057779;28;20030;-84
2020/12/22 06:24:40;;;;;;;0.10;0.10;;;12.70;89.30;;;;;;5057163;28;20033;-84
2020/12/22 06:27:08;;;;;;;1.05;0.03;;;12.80;89.40;;;;;;5075659;28;20059;-84
2020/12/22 06:29:35;;;;;;;1.35;0.10;;;12.80;89.50;;;;;;5057466;28;20040;-84
2020/12/22 06:32:26;;;;;;;1.75;0.10;;;12.80;89.60;;;;;;5056473;28;20024;-84
2020/12/22 06:34:53;;;;;;;0.98;0.10;;;12.80;89.70;;;;;;5075529;28;20107;-84
2020/12/22 06:37:42;;;;;;;0.17;0.00;;;12.80;89.40;;;;;;5057618;28;20028;-84
2020/12/22 06:40:09;;;;;;;0.40;0.10;;;12.80;89.70;;;;;;5075112;28;20039;-84
2020/12/22 06:42:41;;;;;;;0.10;0.08;;;12.80;89.90;;;;;;5057155;28;20123;-84
2020/12/22 06:45:26;;;;;;;0.17;0.10;;;12.70;90.10;;;;;;5057650;28;20024;-84
2020/12/22 06:47:59;;;;;;;0.38;0.10;;;12.70;90.40;;;;;;5057364;28;20044;-84
2020/12/22 06:50:55;;;;;;;1.05;0.22;;;12.70;90.60;;;;;;5056958;28;20044;-84
2020/12/22 06:53:41;;;;;;;0.00;0.00;;;12.70;90.90;;;;;;5040233;28;20461;-84
2020/12/22 06:56:06;;;;;;;0.47;0.00;;;12.60;91.10;;;;;;5057573;28;20032;-84
2020/12/22 06:58:44;;;;;;;0.22;0.10;;;12.50;91.30;;;;;;5056961;28;20048;-84
2020/12/22 07:01:32;;;;;;;0.30;0.10;;;12.50;91.50;;;;;;5057220;28;20047;-84
2020/12/22 07:04:18;;;;;;;0.63;0.13;;;12.50;91.60;;;;;;5056905;28;20046;-84
2020/12/22 07:06:47;;;;;;;0.43;0.10;;;12.50;91.90;;;;;;5056391;28;20024;-84
2020/12/22 07:09:16;;;;;;;0.10;0.10;;;12.40;92.00;;;;;;5074790;28;20028;-84
2020/12/22 07:11:42;;;;;;;0.38;0.10;;;12.40;92.20;;;;;;5056312;28;20059;-84
2020/12/22 07:14:07;;;;;;;0.65;0.10;;;12.40;92.40;;;;;;5056928;28;20032;-84
2020/12/22 07:16:53;;;;;;;0.40;0.00;;;12.30;92.50;;;;;;5074460;28;20021;-85
2020/12/22 07:19:33;;;;;;;0.50;0.20;;;12.30;92.70;;;;;;5056163;28;20051;-84
2020/12/22 07:22:07;;;;;;;0.10;0.10;;;12.30;92.80;;;;;;5057154;28;20113;-85
2020/12/22 07:24:34;;;;;;;0.40;0.30;;;12.30;93.00;;;;;;5056075;28;20476;-85
2020/12/22 07:27:03;;;;;;;1.17;0.20;;;12.20;93.10;;;;;;5056544;28;20474;-84
2020/12/22 07:29:29;;;;;;;0.43;0.10;;;12.20;93.20;;;;;;5055496;28;20037;-85
2020/12/22 07:31:55;;;;;;;0.10;0.10;;;12.20;93.30;;;;;;5056632;28;20028;-84
2020/12/22 07:34:21;;;;;;;0.80;0.28;;;12.20;93.40;;;;;;5034424;28;20025;-84
2020/12/22 07:36:48;;;;;;;0.85;0.10;;;12.20;93.40;;;;;;5041625;28;20031;-84
2020/12/22 07:39:23;;;;;;;0.10;0.10;;;12.20;93.50;;;;;;5027091;28;20676;-85
2020/12/22 07:41:50;;;;;;;0.30;0.10;;;12.20;93.50;;;;;;5044507;28;20079;-85
2020/12/22 07:44:20;;;;;;;1.85;0.20;;;12.20;93.50;;;;;;5039481;28;20028;-85
2020/12/22 07:46:48;;;;;;;1.50;0.20;;;12.20;93.60;;;;;;5044956;28;20462;-84
2020/12/22 07:49:15;;;;;;;0.20;0.10;;;12.20;93.60;;;;;;5039706;28;20484;-84
2020/12/22 07:51:42;;;;;;;0.15;0.10;;;12.20;93.60;;;;;;5053276;28;20135;-85
2020/12/22 07:54:09;;;;;;;0.10;0.10;;;12.20;93.60;;;;;;5036526;28;20065;-85
2020/12/22 07:56:37;;;;;;;1.77;0.20;;;12.20;93.60;;;;;;5036183;28;20056;-84
2020/12/22 07:59:08;;;;;;;0.35;0.20;;;12.20;93.60;;;;;;5054060;28;20428;-85
2020/12/22 08:01:38;;;;;;;0.95;0.30;;;12.20;93.70;;;;;;5036238;28;20051;-84
2020/12/22 08:04:28;;;;;;;0.57;0.30;;;12.10;93.70;;;;;;5035640;28;20032;-85
2020/12/22 08:07:03;;;;;;;0.50;0.20;;;12.20;93.90;;;;;;5036571;28;20037;-85
2020/12/22 08:09:34;;;;;;;0.40;0.10;;;12.20;93.80;;;;;;5036012;28;20497;-85
2020/12/22 08:12:05;;;;;;;0.20;0.10;;;12.10;93.80;;;;;;5036328;28;20025;-84
2020/12/22 08:14:33;;;;;;;1.05;0.30;;;12.20;93.90;;;;;;5035298;28;20029;-84
2020/12/22 08:17:02;;;;;;;2.00;0.20;;;12.20;93.90;;;;;;5036187;28;20028;-84
2020/12/22 08:19:34;;;;;;;0.63;0.30;;;12.20;93.90;;;;;;5035761;28;20040;-84
2020/12/22 08:22:01;;;;;;;0.65;0.13;;;12.20;94.00;;;;;;5036485;28;20021;-82
2020/12/22 08:24:30;;;;;;;1.65;0.40;;;12.20;94.00;;;;;;5037071;28;20021;-84
2020/12/22 08:26:57;;;;;;;0.30;0.10;;;12.20;94.10;;;;;;5043659;28;20422;-84
2020/12/22 08:29:23;;;;;;;0.85;0.20;;;12.10;94.10;;;;;;5041624;28;20112;-84
2020/12/22 08:31:53;;;;;;;0.75;0.30;;;12.10;94.20;;;;;;5043142;28;20016;-84
2020/12/22 08:34:19;;;;;;;1.65;0.30;;;12.10;94.20;;;;;;5055298;28;20024;-85
2020/12/22 08:36:46;;;;;;;1.60;0.68;;;12.10;94.20;;;;;;5043827;28;20040;-87
2020/12/22 08:39:21;;;;;;;0.57;0.38;;;12.20;94.10;;;;;;5033515;28;20119;-83
2020/12/22 08:41:49;;;;;;;1.70;0.35;;;12.20;94.10;;;;;;5044922;28;20032;-84
2020/12/22 08:44:16;;;;;;;1.92;0.70;;;12.20;94.00;;;;;;5056016;28;20035;-84
2020/12/22 08:46:42;;;;;;;4.30;1.20;;;12.20;94.10;;;;;;5072677;28;20021;-86
2020/12/22 08:49:12;;;;;;;1.08;0.40;;;12.20;94.10;;;;;;5073414;28;20075;-84
2020/12/22 08:51:38;;;;;;;0.70;0.47;;;12.20;94.00;;;;;;5072601;28;20044;-83
2020/12/22 08:54:05;;;;;;;0.75;0.38;;;12.20;94.10;;;;;;5073722;28;20031;-84
2020/12/22 08:56:31;;;;;;;0.40;0.20;;;12.20;94.10;;;;;;5076948;28;20029;-84
2020/12/22 08:59:01;;;;;;;0.50;0.20;;;12.20;94.10;;;;;;5059632;28;20032;-83
2020/12/22 09:01:42;;;;;;;2.28;0.40;;;12.20;94.10;;;;;;5059651;28;20077;-83
2020/12/22 09:04:10;;;;;;;3.30;0.22;;;12.20;94.00;;;;;;5059217;28;20021;-83
2020/12/22 09:06:47;;;;;;;2.03;0.50;;;12.20;93.90;;;;;;5059174;28;20021;-84
2020/12/22 09:09:17;;;;;;;0.85;0.20;;;12.20;93.90;;;;;;5059297;28;20020;-85
2020/12/22 09:11:45;;;;;;;1.23;0.22;;;12.30;93.80;;;;;;5059143;28;20017;-83
2020/12/22 09:14:11;;;;;;;0.40;0.30;;;12.20;93.80;;;;;;5059712;28;20048;-85
2020/12/22 09:16:56;;;;;;;1.00;0.40;;;12.30;93.80;;;;;;5076085;28;20028;-84
2020/12/22 09:19:28;;;;;;;0.52;0.40;;;12.30;93.70;;;;;;5076861;28;20461;-84
2020/12/22 09:21:59;;;;;;;2.72;0.30;;;12.30;93.60;;;;;;5059174;28;20082;-84
2020/12/22 09:24:25;;;;;;;0.57;0.30;;;12.30;93.80;;;;;;5059027;28;20024;-83
2020/12/22 09:27:02;;;;;;;1.30;0.35;;;12.30;93.50;;;;;;5076685;28;20031;-84
2020/12/22 09:29:29;;;;;;;0.57;0.25;;;12.30;93.50;;;;;;5059324;28;20029;-84
2020/12/22 09:31:57;;;;;;;1.05;0.50;;;12.40;93.50;;;;;;5059343;28;20025;-84
2020/12/22 09:34:23;;;;;;;1.73;0.57;;;12.40;93.80;;;;;;5059032;28;20021;-84
2020/12/22 09:36:57;;;;;;;0.45;0.30;;;12.40;93.50;;;;;;5075997;28;20092;-83
2020/12/22 09:39:24;;;;;;;0.43;0.30;;;12.40;93.20;;;;;;5076617;28;20028;-85
2020/12/22 09:41:51;;;;;;;1.02;0.40;;;12.50;93.20;;;;;;5076255;28;20029;-85
2020/12/22 09:44:16;;;;;;;1.75;0.60;;;12.50;93.20;;;;;;5058974;28;20115;-85
2020/12/22 09:46:45;;;;;;;1.35;0.30;;;12.60;93.00;;;;;;5058657;28;20063;-84
2020/12/22 09:49:11;;;;;;;1.23;0.40;;;12.60;92.80;;;;;;5058886;28;20024;-85
2020/12/22 09:51:40;;;;;;;1.00;0.50;;;12.60;92.60;;;;;;5057972;28;20095;-84
2020/12/22 09:54:06;;;;;;;0.50;0.20;;;12.60;92.60;;;;;;5076315;28;20070;-87
2020/12/22 09:56:31;;;;;;;0.90;0.28;;;12.70;92.60;;;;;;5057594;28;20028;-86
2020/12/22 09:58:58;;;;;;;0.65;0.30;;;12.70;92.60;;;;;;5058163;28;20082;-87
2020/12/22 10:01:25;;;;;;;0.60;0.28;;;12.70;92.50;;;;;;5062896;28;20159;-87
2020/12/22 10:03:52;;;;;;;0.80;0.52;;;12.70;92.60;;;;;;5028272;28;20036;-87
2020/12/22 10:06:19;;;;;;;0.40;0.30;;;12.60;92.70;;;;;;5032645;28;20108;-86
2020/12/22 10:08:45;;;;;;;0.70;0.20;;;12.70;92.80;;;;;;5018205;28;20096;-88
2020/12/22 10:11:11;;;;;;;1.38;0.30;;;12.60;92.80;;;;;;5018731;28;20489;-87
2020/12/22 10:13:37;;;;;;;20.60;9.98;;;12.70;92.60;;;;;;5020916;28;20021;-87
2020/12/22 10:16:14;;;;;;;5.55;1.50;;;12.70;92.60;;;;;;5029393;28;20517;-88
2020/12/22 10:18:40;;;;;;;1.55;0.50;;;12.70;92.70;;;;;;5031621;28;20033;-87
2020/12/22 10:21:10;;;;;;;1.40;0.20;;;12.70;92.70;;;;;;5026773;28;20036;-88
2020/12/22 10:23:37;;;;;;;0.47;0.32;;;12.70;92.80;;;;;;5032939;28;20021;-86
2020/12/22 10:26:05;;;;;;;0.38;0.28;;;12.60;92.80;;;;;;5038583;28;20153;-85
2020/12/22 10:28:32;;;;;;;2.10;0.40;;;12.60;92.80;;;;;;5048937;28;20029;-85
2020/12/22 10:30:59;;;;;;;2.40;0.30;;;12.60;92.80;;;;;;5039733;28;20078;-87
2020/12/22 10:33:25;;;;;;;1.00;0.30;;;12.70;92.60;;;;;;5019963;28;20060;-84
2020/12/22 10:35:51;;;;;;;0.30;0.20;;;12.70;92.60;;;;;;5018321;28;20021;-84
2020/12/22 10:38:17;;;;;;;1.38;0.30;;;12.70;92.90;;;;;;5033052;28;20033;-84
2020/12/22 10:40:43;;;;;;;1.65;0.20;;;12.70;92.60;;;;;;5024554;28;20029;-84
2020/12/22 10:43:09;;;;;;;0.40;0.30;;;12.60;92.60;;;;;;5026333;28;20045;-83
2020/12/22 10:45:35;;;;;;;0.20;0.10;;;12.70;92.50;;;;;;5031123;28;20032;-85
2020/12/22 10:48:01;;;;;;;1.23;0.17;;;12.70;92.50;;;;;;5047898;28;20086;-84
2020/12/22 10:50:27;;;;;;;1.20;0.60;;;12.70;92.30;;;;;;5031456;28;20144;-85
2020/12/22 10:52:53;;;;;;;0.20;0.20;;;12.70;92.30;;;;;;5038806;28;20029;-87
2020/12/22 10:55:20;;;;;;;0.65;0.20;;;12.80;92.10;;;;;;5047307;28;20017;-85
2020/12/22 10:57:46;;;;;;;0.73;0.20;;;12.80;92.10;;;;;;5040512;28;20078;-85
2020/12/22 11:00:12;;;;;;;1.33;0.30;;;12.80;92.10;;;;;;5041588;28;20025;-84
2020/12/22 11:02:37;;;;;;;0.52;0.30;;;12.80;91.90;;;;;;5043979;28;20021;-84
2020/12/22 11:05:04;;;;;;;2.45;0.28;;;12.80;91.80;;;;;;5037557;28;20130;-84
2020/12/22 11:09:56;;;;;;;1.40;0.25;;;12.90;91.70;;;;;;5054388;28;20052;-86
2020/12/22 11:12:21;;;;;;;0.22;0.20;;;12.90;91.60;;;;;;5054524;28;20032;-84
2020/12/22 11:14:47;;;;;;;0.55;0.30;;;13.00;91.50;;;;;;5053483;28;20024;-89
2020/12/22 11:17:12;;;;;;;3.90;0.55;;;13.00;91.40;;;;;;5053007;28;20025;-87
2020/12/22 11:19:38;;;;;;;1.20;0.40;;;13.00;91.30;;;;;;5048183;28;20037;-87
2020/12/22 11:22:04;;;;;;;1.80;0.30;;;13.00;91.40;;;;;;5047779;28;20017;-87
2020/12/22 11:24:29;;;;;;;0.55;0.20;;;13.00;91.40;;;;;;5049286;28;20045;-88
2020/12/22 11:26:56;;;;;;;0.40;0.30;;;13.00;91.50;;;;;;5015078;28;20030;-88
2020/12/22 11:29:21;;;;;;;0.73;0.22;;;13.00;91.50;;;;;;5032737;28;20087;-87
2020/12/22 11:31:48;;;;;;;1.13;0.30;;;13.00;91.50;;;;;;5032825;28;20021;-86
2020/12/22 11:34:16;;;;;;;0.43;0.20;;;12.90;91.70;;;;;;5033759;28;20022;-85
2020/12/22 11:36:42;;;;;;;1.45;0.45;;;12.90;91.70;;;;;;5032956;28;20144;-86
2020/12/22 11:39:07;;;;;;;0.60;0.30;;;12.90;91.90;;;;;;5033941;28;20038;-86
2020/12/22 11:41:33;;;;;;;1.20;0.20;;;12.90;92.00;;;;;;5033193;28;20467;-86
2020/12/22 11:44:01;;;;;;;1.73;0.30;;;12.90;92.10;;;;;;5033713;28;20029;-85
2020/12/22 11:46:26;;;;;;;0.30;0.20;;;12.90;92.20;;;;;;5033025;28;20116;-86
2020/12/22 11:48:53;;;;;;;0.60;0.20;;;12.90;92.30;;;;;;5032699;28;20067;-87
2020/12/22 11:51:18;;;;;;;0.82;0.30;;;12.90;92.40;;;;;;5052522;28;20052;-86
2020/12/22 11:53:44;;;;;;;0.35;0.30;;;12.90;92.50;;;;;;5055496;28;20555;-85
2020/12/22 11:56:10;;;;;;;1.30;0.30;;;12.90;92.60;;;;;;5073773;28;20497;-86
2020/12/22 11:58:35;;;;;;;1.63;0.20;;;12.90;92.60;;;;;;5056464;28;20036;-87
2020/12/22 12:01:01;;;;;;;0.57;0.20;;;12.90;92.60;;;;;;5036523;28;20489;-87
2020/12/22 12:03:26;;;;;;;0.40;0.30;;;12.90;92.60;;;;;;5047244;28;20029;-87
2020/12/22 12:05:52;;;;;;;0.57;0.38;;;13.00;92.50;;;;;;5033655;28;20037;-86
2020/12/22 12:08:18;;;;;;;1.70;1.08;;;13.00;92.60;;;;;;5034282;28;20033;-87
2020/12/22 12:10:43;;;;;;;1.80;0.50;;;13.00;92.60;;;;;;5034538;28;20367;-87
2020/12/22 12:13:09;;;;;;;0.73;0.20;;;13.10;92.60;;;;;;5034101;28;20047;-86
2020/12/22 12:15:35;;;;;;;1.17;0.20;;;13.00;92.70;;;;;;5036646;28;20029;-86
2020/12/22 12:18:00;;;;;;;0.35;0.30;;;13.10;92.80;;;;;;5033057;28;20561;-87
2020/12/22 12:20:26;;;;;;;0.47;0.38;;;13.10;92.70;;;;;;5034760;28;20031;-87
2020/12/22 12:22:52;;;;;;;0.25;0.20;;;13.10;92.70;;;;;;5034830;28;20112;-88
2020/12/22 12:25:18;;;;;;;0.98;0.30;;;13.10;92.60;;;;;;5033721;28;20124;-87
2020/12/22 12:27:44;;;;;;;0.73;0.35;;;13.20;92.70;;;;;;5033306;28;20049;-88
2020/12/22 12:30:09;;;;;;;0.60;0.30;;;13.20;92.80;;;;;;5041215;28;20032;-86
2020/12/22 12:32:35;;;;;;;1.05;0.40;;;13.10;92.80;;;;;;5044045;28;20025;-85
2020/12/22 12:35:00;;;;;;;0.30;0.30;;;13.10;92.90;;;;;;5026379;28;20028;-87
2020/12/22 12:37:29;;;;;;;0.70;0.30;;;13.10;92.90;;;;;;5020664;28;20029;-87
2020/12/22 12:39:55;;;;;;;0.40;0.30;;;13.10;93.00;;;;;;5019793;28;20049;-86
2020/12/22 12:42:20;;;;;;;1.52;0.40;;;13.10;93.10;;;;;;5019687;28;20500;-87
2020/12/22 12:44:46;;;;;;;0.95;0.30;;;13.10;93.10;;;;;;5019930;28;20451;-85
2020/12/22 12:47:12;;;;;;;0.45;0.30;;;13.10;93.20;;;;;;5037399;28;20116;-86
2020/12/22 12:49:40;;;;;;;0.85;0.30;;;13.10;93.20;;;;;;5020011;28;20033;-86
2020/12/22 12:52:06;;;;;;;0.50;0.30;;;13.10;93.10;;;;;;5035999;28;20079;-84